< < Back
Terminal Aerodrome Forecast


Current Version              Previous Versions:   1  2  3  4  5  6  7  8  9  

Terminal Aerodrome Forecast

132
FTUS42 KILM 190500
TAFILM
TAF
KILM 190534Z 1906/2006 03013G22KT 3SM RA BR BKN007 OVC012
     FM191800 02014G20KT 6SM -RA SCT007 OVC015
     FM200000 03013KT P6SM -RA OVC007=



Latest METAR

668
SAUS70 KWBC 192200 RRL
MTRILM
METAR KILM 192153Z AUTO 03015G24KT 3SM -RA BR OVC014 13/11 A3004 RMK AO2
PK WND 04026/2127 RAB45 SLP173 P0000 T01330111


USA.gov is the U.S. government's official web portal to all federal, state and local government web resources and services.